Thailine 5 — 9WFF5 — position and weather

sailwx.info

Track history (hours):
 
Tides and Currents Weather Stations Pressure Air Temp Water Temp Dewpoint Dewpoint Depression Visibility Wind Speed Wind Dir Waves Ship Positions

Thailine 5

Last reported at 2014-Nov-15 07:30 UTC. Time now 2014-Nov-29 00:04 UTC.
Position N 35°07' E 139°43'.
Warning: this ship's position is 13 days out of date.

; draft 5.1 m.

Type: Cargo ship. MMSI: 533399000.

Date/timePositionNaut miles runAvg speedWind from/ knotsBaromVisibWave heightAir tempDewpointWater temp
2014-Nov-15 07:30N 35°07' E 139°43'1010.1
2014-Nov-15 06:29N 35°17' E 139°45'910.2
2014-Nov-15 05:34N 35°26' E 139°42'2 1.5
2014-Nov-15 04:31N 35°27' E 139°41'0 0.0
2014-Nov-15 03:31N 35°27' E 139°41'0 0.0
2014-Nov-15 02:31N 35°27' E 139°41'0 0.0
2014-Nov-15 01:31N 35°27' E 139°41'0 0.0
2014-Nov-15 00:31N 35°27' E 139°41'0 0.0
2014-Nov-14 23:31N 35°27' E 139°41'0 0.0
2014-Nov-14 22:31N 35°27' E 139°41'1 1.4
2014-Nov-14 21:33N 35°26' E 139°42'0 0.4
2014-Nov-14 20:30N 35°25' E 139°42'0 0.0
2014-Nov-14 19:33N 35°25' E 139°42'0 0.0
2014-Nov-14 18:33N 35°25' E 139°42'0 0.0
2014-Nov-14 17:33N 35°25' E 139°42'0 0.0
2014-Nov-14 16:33N 35°25' E 139°42'0 0.0
2014-Nov-14 15:33N 35°25' E 139°42'0 0.0
2014-Nov-14 14:33N 35°25' E 139°42'0 0.0
2014-Nov-14 12:33N 35°25' E 139°42'5 4.7
2014-Nov-14 11:33N 35°21' E 139°43'1111.0
2014-Nov-14 10:33N 35°10' E 139°47'  
2014-Nov-10 11:33N 35°09' E 139°45'1010.4
2014-Nov-10 10:33N 35°19' E 139°43'10 9.6
2014-Nov-10 09:33N 35°28' E 139°49'13 9.8
2014-Nov-10 08:16N 35°37' E 139°59'4 0.1
2014-Nov-08 13:09N 35°33' E 139°58'6 9.7
2014-Nov-08 12:33N 35°30' E 139°53'9 9.3
2014-Nov-08 11:33N 35°22' E 139°45'8 7.8
2014-Nov-08 10:33N 35°15' E 139°47'248 7.7
2014-Nov-07 02:26N 34°03' E 134°58'1011.1
2014-Nov-07 01:33N 34°13' E 134°58'9 9.0
2014-Nov-07 00:33N 34°22' E 135°01'7 6.6
2014-Nov-06 23:33N 34°22' E 135°09'0 0.0
2014-Nov-06 22:33N 34°22' E 135°09'0 0.0
2014-Nov-06 21:15N 34°22' E 135°09'0 0.0
2014-Nov-06 20:33N 34°22' E 135°09'0 0.0
2014-Nov-06 19:33N 34°22' E 135°09'0 0.0
2014-Nov-06 18:33N 34°22' E 135°09'0 0.0
2014-Nov-06 17:33N 34°22' E 135°08'0 0.0
2014-Nov-06 16:33N 34°22' E 135°09'0 0.0
2014-Nov-06 15:27N 34°22' E 135°09'0 0.0
2014-Nov-06 14:15N 34°22' E 135°09'0 0.0
2014-Nov-06 13:33N 34°22' E 135°09'0 0.0
2014-Nov-06 12:27N 34°22' E 135°09'0 0.0
2014-Nov-06 11:27N 34°22' E 135°09'0 0.0
2014-Nov-06 10:33N 34°22' E 135°09'0 0.0
2014-Nov-06 09:33N 34°22' E 135°09'0 0.0
2014-Nov-06 08:33N 34°22' E 135°09'0 0.0
2014-Nov-06 07:27N 34°22' E 135°09'0 0.0
2014-Nov-06 06:33N 34°22' E 135°09'0 0.1
2014-Nov-06 05:33N 34°22' E 135°09'0 0.0
2014-Nov-06 04:27N 34°22' E 135°09'0 0.0
2014-Nov-06 02:27N 34°22' E 135°09'0 0.1
2014-Nov-06 01:33N 34°22' E 135°09'0 0.1
2014-Nov-06 00:27N 34°22' E 135°09'0 0.0
2014-Nov-05 23:27N 34°22' E 135°09'0 0.0
2014-Nov-05 20:21N 34°22' E 135°09'0 0.1
2014-Nov-05 19:30N 34°22' E 135°09'0 0.0
2014-Nov-05 18:27N 34°22' E 135°08'0 0.0
2014-Nov-05 17:30N 34°22' E 135°08'0 0.0
2014-Nov-05 16:30N 34°22' E 135°08'0 0.0
2014-Nov-05 15:24N 34°22' E 135°08'0 0.0
2014-Nov-05 14:30N 34°22' E 135°08'0 0.0
2014-Nov-05 13:30N 34°22' E 135°08'0 0.0
2014-Nov-05 12:30N 34°22' E 135°08'0 0.0
2014-Nov-05 10:30N 34°22' E 135°08'0 0.0
2014-Nov-05 09:24N 34°22' E 135°09'0 0.0
2014-Nov-05 08:06N 34°22' E 135°09'  
Track history (hours):
 
Tides and Currents Weather Stations Pressure Air Temp Water Temp Dewpoint Dewpoint Depression Visibility Wind Speed Wind Dir Waves Ship Positions

Thailine 5

Last reported at 2014-Nov-15 07:30 UTC. Time now 2014-Nov-29 00:04 UTC.
Position N 35°07' E 139°43'.
Warning: this ship's position is 13 days out of date.

; draft 5.1 m.

Type: Cargo ship. MMSI: 533399000.

Date/timePositionNaut miles runAvg speedWind from/ knotsBaromVisibWave heightAir tempDewpointWater temp
2014-Nov-15 07:30N 35°07' E 139°43'1010.1
2014-Nov-15 06:29N 35°17' E 139°45'910.2
2014-Nov-15 05:34N 35°26' E 139°42'2 1.5
2014-Nov-15 04:31N 35°27' E 139°41'0 0.0
2014-Nov-15 03:31N 35°27' E 139°41'0 0.0
2014-Nov-15 02:31N 35°27' E 139°41'0 0.0
2014-Nov-15 01:31N 35°27' E 139°41'0 0.0
2014-Nov-15 00:31N 35°27' E 139°41'0 0.0
2014-Nov-14 23:31N 35°27' E 139°41'0 0.0
2014-Nov-14 22:31N 35°27' E 139°41'1 1.4
2014-Nov-14 21:33N 35°26' E 139°42'0 0.4
2014-Nov-14 20:30N 35°25' E 139°42'0 0.0
2014-Nov-14 19:33N 35°25' E 139°42'0 0.0
2014-Nov-14 18:33N 35°25' E 139°42'0 0.0
2014-Nov-14 17:33N 35°25' E 139°42'0 0.0
2014-Nov-14 16:33N 35°25' E 139°42'0 0.0
2014-Nov-14 15:33N 35°25' E 139°42'0 0.0
2014-Nov-14 14:33N 35°25' E 139°42'0 0.0
2014-Nov-14 12:33N 35°25' E 139°42'5 4.7
2014-Nov-14 11:33N 35°21' E 139°43'1111.0
2014-Nov-14 10:33N 35°10' E 139°47'  
2014-Nov-10 11:33N 35°09' E 139°45'1010.4
2014-Nov-10 10:33N 35°19' E 139°43'10 9.6
2014-Nov-10 09:33N 35°28' E 139°49'13 9.8
2014-Nov-10 08:16N 35°37' E 139°59'4 0.1
2014-Nov-08 13:09N 35°33' E 139°58'6 9.7
2014-Nov-08 12:33N 35°30' E 139°53'9 9.3
2014-Nov-08 11:33N 35°22' E 139°45'8 7.8
2014-Nov-08 10:33N 35°15' E 139°47'248 7.7
2014-Nov-07 02:26N 34°03' E 134°58'1011.1
2014-Nov-07 01:33N 34°13' E 134°58'9 9.0
2014-Nov-07 00:33N 34°22' E 135°01'7 6.6
2014-Nov-06 23:33N 34°22' E 135°09'0 0.0
2014-Nov-06 22:33N 34°22' E 135°09'0 0.0
2014-Nov-06 21:15N 34°22' E 135°09'0 0.0
2014-Nov-06 20:33N 34°22' E 135°09'0 0.0
2014-Nov-06 19:33N 34°22' E 135°09'0 0.0
2014-Nov-06 18:33N 34°22' E 135°09'0 0.0
2014-Nov-06 17:33N 34°22' E 135°08'0 0.0
2014-Nov-06 16:33N 34°22' E 135°09'0 0.0
2014-Nov-06 15:27N 34°22' E 135°09'0 0.0
2014-Nov-06 14:15N 34°22' E 135°09'0 0.0
2014-Nov-06 13:33N 34°22' E 135°09'0 0.0
2014-Nov-06 12:27N 34°22' E 135°09'0 0.0
2014-Nov-06 11:27N 34°22' E 135°09'0 0.0
2014-Nov-06 10:33N 34°22' E 135°09'0 0.0
2014-Nov-06 09:33N 34°22' E 135°09'0 0.0
2014-Nov-06 08:33N 34°22' E 135°09'0 0.0
2014-Nov-06 07:27N 34°22' E 135°09'0 0.0
2014-Nov-06 06:33N 34°22' E 135°09'0 0.1
2014-Nov-06 05:33N 34°22' E 135°09'0 0.0
2014-Nov-06 04:27N 34°22' E 135°09'0 0.0
2014-Nov-06 02:27N 34°22' E 135°09'0 0.1
2014-Nov-06 01:33N 34°22' E 135°09'0 0.1
2014-Nov-06 00:27N 34°22' E 135°09'0 0.0
2014-Nov-05 23:27N 34°22' E 135°09'0 0.0
2014-Nov-05 20:21N 34°22' E 135°09'0 0.1
2014-Nov-05 19:30N 34°22' E 135°09'0 0.0
2014-Nov-05 18:27N 34°22' E 135°08'0 0.0
2014-Nov-05 17:30N 34°22' E 135°08'0 0.0
2014-Nov-05 16:30N 34°22' E 135°08'0 0.0
2014-Nov-05 15:24N 34°22' E 135°08'0 0.0
2014-Nov-05 14:30N 34°22' E 135°08'0 0.0
2014-Nov-05 13:30N 34°22' E 135°08'0 0.0
2014-Nov-05 12:30N 34°22' E 135°08'0 0.0
2014-Nov-05 10:30N 34°22' E 135°08'0 0.0
2014-Nov-05 09:24N 34°22' E 135°09'0 0.0
2014-Nov-05 08:06N 34°22' E 135°09'  

Dump ship's entire track history